Time;durP1;ratioP1;P1;durP2;ratioP2;P2;SDS_P1;SDS_P2;PMS_P1;PMS_P2;Temp;Humidity;BMP_temperature;BMP_pressure;BME280_temperature;BME280_humidity;BME280_pressure;Samples;Min_cycle;Max_cycle;Signal;HPM_P1;HPM_P2
2023/08/30 00:00:40;;;;;;;8.85;7.30;;;;;;;18.26;66.75;96597.16;4896954;28;20211;-84
2023/08/30 00:03:06;;;;;;;9.00;8.13;;;;;;;18.22;66.95;96590.97;4873047;28;20243;-84
2023/08/30 00:05:31;;;;;;;8.98;8.18;;;;;;;18.26;67.00;96597.91;4856906;28;20966;-84
2023/08/30 00:07:57;;;;;;;8.77;7.88;;;;;;;18.29;67.13;96604.44;4880720;28;20269;-84
2023/08/30 00:10:22;;;;;;;7.45;6.68;;;;;;;18.30;67.21;96598.88;4862841;28;20246;-83
2023/08/30 00:12:48;;;;;;;6.50;5.90;;;;;;;18.28;66.64;96589.72;4870478;28;20190;-83
2023/08/30 00:15:14;;;;;;;6.10;5.60;;;;;;;18.35;66.72;96600.56;4849332;28;20287;-84
2023/08/30 00:17:39;;;;;;;7.88;7.07;;;;;;;18.35;67.20;96595.28;4866797;28;20164;-84
2023/08/30 00:20:06;;;;;;;8.65;7.75;;;;;;;18.23;67.23;96588.00;4880562;28;20191;-84
2023/08/30 00:22:32;;;;;;;7.07;6.40;;;;;;;17.94;68.14;96591.19;4842183;28;20187;-83
2023/08/30 00:35:21;;;;;;;5.80;5.30;;;;;;;18.20;67.13;96580.72;5235546;23;20301;-83
2023/08/30 00:37:46;;;;;;;6.43;5.82;;;;;;;18.35;66.80;96592.66;4889339;28;20317;-83
2023/08/30 00:40:12;;;;;;;6.90;6.30;;;;;;;18.32;67.17;96580.13;4888333;28;20269;-84
2023/08/30 00:42:37;;;;;;;6.88;6.28;;;;;;;18.33;67.15;96581.66;4873254;28;20322;-83
2023/08/30 00:45:04;;;;;;;7.78;7.07;;;;;;;18.38;67.36;96584.13;4885024;28;20618;-83
2023/08/30 00:47:29;;;;;;;7.95;7.18;;;;;;;18.40;66.68;96586.47;4870486;28;20176;-83
2023/08/30 00:49:55;;;;;;;8.20;7.40;;;;;;;18.40;66.83;96589.88;4887480;28;20167;-83
2023/08/30 00:52:20;;;;;;;8.68;7.90;;;;;;;18.39;66.87;96580.44;4869155;28;20297;-84
2023/08/30 00:54:45;;;;;;;9.23;8.32;;;;;;;18.40;66.48;96581.19;4855050;28;20534;-83
2023/08/30 00:57:12;;;;;;;10.23;9.02;;;;;;;18.41;66.24;96580.13;4873538;28;20286;-83
2023/08/30 00:59:37;;;;;;;8.77;7.63;;;;;;;18.40;67.41;96587.22;4876951;28;20380;-83
2023/08/30 01:02:04;;;;;;;8.77;7.97;;;;;;;18.35;66.78;96574.22;4886897;28;20214;-83
2023/08/30 01:04:29;;;;;;;9.50;8.55;;;;;;;18.34;67.05;96572.66;4871409;28;20227;-83
2023/08/30 01:06:54;;;;;;;9.55;8.65;;;;;;;18.37;67.03;96574.69;4865184;28;20640;-84
2023/08/30 01:09:21;;;;;;;9.18;8.25;;;;;;;18.36;66.91;96577.63;4875362;28;22224;-83
2023/08/30 01:11:57;;;;;;;9.07;8.13;;;;;;;18.41;66.53;96566.94;4892073;28;20241;-83
2023/08/30 01:14:27;;;;;;;9.98;8.75;;;;;;;18.38;66.43;96572.81;4875645;28;20207;-83
2023/08/30 01:16:52;;;;;;;9.88;8.95;;;;;;;18.29;66.85;96570.19;4859815;28;20293;-83
2023/08/30 01:19:18;;;;;;;10.35;9.25;;;;;;;18.29;67.14;96570.94;4871763;28;20684;-84
2023/08/30 01:21:53;;;;;;;9.98;8.95;;;;;;;18.38;66.91;96570.97;4876243;28;20273;-83
2023/08/30 01:24:28;;;;;;;10.55;9.45;;;;;;;18.29;66.72;96559.66;4858167;28;20207;-84
2023/08/30 01:27:14;;;;;;;;;;;;;;;18.43;66.37;96564.75;4873668;28;20207;-84
2023/08/30 01:29:43;;;;;;;9.90;8.98;;;;;;;18.25;66.94;96553.44;4904460;28;20086;-83
2023/08/30 01:32:09;;;;;;;10.20;9.20;;;;;;;18.26;67.02;96561.03;4891759;28;20184;-84
2023/08/30 01:34:37;;;;;;;9.90;8.90;;;;;;;18.24;67.07;96555.28;4871511;28;20215;-84
2023/08/30 01:37:09;;;;;;;9.73;8.48;;;;;;;18.26;66.84;96550.47;4856552;28;20362;-84
2023/08/30 01:39:36;;;;;;;11.15;10.02;;;;;;;18.20;66.66;96550.94;4871716;28;20712;-84
2023/08/30 01:42:02;;;;;;;10.20;9.20;;;;;;;18.22;66.77;96561.97;4901908;28;20061;-84
2023/08/30 01:44:31;;;;;;;10.65;9.55;;;;;;;18.22;66.42;96549.56;4901992;28;20188;-83
2023/08/30 01:49:26;;;;;;;10.13;9.13;;;;;;;18.14;66.91;96558.22;5118433;23;20233;-84
2023/08/30 01:51:52;;;;;;;8.93;8.05;;;;;;;18.17;66.67;96551.56;5110417;23;20284;-83
2023/08/30 01:54:19;;;;;;;11.10;9.95;;;;;;;18.09;67.03;96548.59;4732365;23;20635;-83
2023/08/30 01:56:45;;;;;;;10.32;9.32;;;;;;;18.00;66.67;96531.25;5353548;23;21000;-83
2023/08/30 01:59:11;;;;;;;11.57;10.32;;;;;;;18.06;66.94;96548.44;5623671;23;21391;-83
2023/08/30 02:04:11;;;;;;;13.57;11.32;;;;;;;17.95;66.75;96542.69;5152913;23;20034;-83
2023/08/30 02:11:51;;;;;;;11.35;10.15;;;;;;;18.00;66.97;96537.28;5702125;23;20206;-83
2023/08/30 02:14:17;;;;;;;13.55;11.43;;;;;;;18.00;67.00;96541.78;5350396;23;20190;-83
2023/08/30 02:19:21;;;;;;;13.10;11.13;;;;;;;17.94;66.67;96541.13;5063076;23;20171;-83
2023/08/30 02:21:48;;;;;;;12.57;11.30;;;;;;;17.95;66.78;96543.47;4944519;23;20211;-83
2023/08/30 02:24:13;;;;;;;15.48;13.07;;;;;;;17.98;66.61;96547.38;4901509;28;20342;-83
2023/08/30 02:26:39;;;;;;;13.95;11.57;;;;;;;17.94;66.38;96543.78;4903122;28;20198;-82
2023/08/30 02:31:39;;;;;;;13.20;11.80;;;;;;;17.91;66.71;96541.78;5107363;23;20230;-83
2023/08/30 02:34:05;;;;;;;14.73;13.23;;;;;;;17.82;66.63;96536.47;5263464;23;20169;-83
2023/08/30 02:44:13;;;;;;;16.02;12.85;;;;;;;17.78;66.95;96533.66;5208980;23;20223;-83
2023/08/30 02:51:41;;;;;;;17.00;13.73;;;;;;;17.84;67.04;96530.88;4994556;23;20027;-83
2023/08/30 02:56:43;;;;;;;;;;;;;;;18.08;66.47;96539.16;5201368;23;20169;-83
2023/08/30 02:59:10;;;;;;;19.35;15.98;;;;;;;17.91;66.79;96528.59;4862868;28;20447;-83
2023/08/30 03:01:36;;;;;;;24.00;16.55;;;;;;;17.88;66.59;96527.34;4871250;28;20164;-82
2023/08/30 03:04:01;;;;;;;18.85;15.45;;;;;;;17.91;66.87;96534.66;4863879;28;20192;-83
2023/08/30 03:06:27;;;;;;;19.85;16.65;;;;;;;17.89;67.10;96533.38;4888934;28;20680;-83
2023/08/30 03:08:55;;;;;;;20.75;15.98;;;;;;;17.95;66.54;96545.34;4869966;28;20181;-83
2023/08/30 03:11:21;;;;;;;17.33;14.70;;;;;;;17.89;66.75;96541.28;4889386;28;20762;-83
2023/08/30 03:13:46;;;;;;;16.73;13.20;;;;;;;17.85;66.89;96524.53;4841405;28;20291;-83
2023/08/30 03:16:12;;;;;;;15.38;13.57;;;;;;;17.83;67.06;96534.59;4855024;28;20276;-82
2023/08/30 03:18:39;;;;;;;16.63;13.55;;;;;;;17.83;66.91;96522.19;4836744;29;20283;-83
2023/08/30 03:21:06;;;;;;;19.75;15.68;;;;;;;17.91;67.20;96537.28;4862050;28;20201;-83
2023/08/30 03:23:32;;;;;;;19.13;16.65;;;;;;;17.87;66.46;96519.75;4853690;28;20196;-82
2023/08/30 03:25:59;;;;;;;21.77;16.83;;;;;;;17.95;67.34;96527.66;4860769;28;20219;-82
2023/08/30 03:28:24;;;;;;;20.83;16.50;;;;;;;17.97;66.34;96527.38;4869734;28;20248;-83
2023/08/30 03:30:49;;;;;;;21.35;15.70;;;;;;;17.95;66.97;96525.03;4856672;28;20207;-83
2023/08/30 03:33:15;;;;;;;21.00;16.83;;;;;;;17.97;66.84;96524.72;4855530;28;20196;-83
2023/08/30 03:35:40;;;;;;;17.65;14.93;;;;;;;17.97;67.15;96527.38;4867503;29;20210;-83
2023/08/30 03:38:06;;;;;;;22.33;17.27;;;;;;;17.86;66.15;96516.34;4866408;28;20193;-83
2023/08/30 03:40:31;;;;;;;19.58;16.00;;;;;;;18.05;66.57;96539.78;4853329;28;20362;-83
2023/08/30 03:42:56;;;;;;;22.02;17.10;;;;;;;17.91;66.10;96520.72;4857233;28;20156;-82
2023/08/30 03:45:22;;;;;;;17.38;15.23;;;;;;;18.05;66.59;96533.75;4869829;28;20457;-83
2023/08/30 03:47:47;;;;;;;17.80;15.25;;;;;;;17.99;66.29;96525.19;4869681;28;20307;-83
2023/08/30 03:50:13;;;;;;;23.50;17.58;;;;;;;17.89;66.65;96522.84;4838532;28;20729;-83
2023/08/30 03:52:38;;;;;;;17.98;14.80;;;;;;;18.02;66.68;96529.84;4879107;28;20442;-83
2023/08/30 03:55:04;;;;;;;19.92;16.70;;;;;;;18.04;66.22;96532.19;4864338;28;20631;-83
2023/08/30 03:57:30;;;;;;;21.30;17.63;;;;;;;18.03;66.33;96534.03;4853760;28;20219;-83
2023/08/30 03:59:55;;;;;;;20.88;17.17;;;;;;;18.07;66.42;96536.84;4857258;29;20291;-82
2023/08/30 04:02:20;;;;;;;17.52;14.75;;;;;;;18.05;66.25;96528.47;4864951;28;20373;-82
2023/08/30 04:04:47;;;;;;;18.83;15.60;;;;;;;18.05;66.52;96529.25;4902780;28;20224;-82
2023/08/30 04:07:15;;;;;;;18.40;14.93;;;;;;;18.07;66.54;96534.97;5282235;23;20021;-83
2023/08/30 04:12:10;;;;;;;19.42;15.82;;;;;;;18.05;66.27;96529.25;5144314;23;20181;-83
2023/08/30 04:14:35;;;;;;;19.10;14.82;;;;;;;18.04;66.08;96530.31;4985041;23;20713;-83
2023/08/30 04:17:02;;;;;;;16.55;14.32;;;;;;;18.04;65.82;96535.56;4901737;28;20195;-83
2023/08/30 04:19:28;;;;;;;17.85;15.35;;;;;;;17.96;66.22;96531.09;5063810;23;20369;-85
2023/08/30 04:21:54;;;;;;;17.75;15.65;;;;;;;17.96;66.06;96531.09;4899352;28;20204;-85
2023/08/30 04:24:19;;;;;;;16.95;14.85;;;;;;;17.96;66.51;96531.88;4891367;28;20318;-83
2023/08/30 04:26:45;;;;;;;17.80;14.68;;;;;;;17.93;66.42;96527.19;4888165;28;20197;-82
2023/08/30 04:34:22;;;;;;;15.00;13.40;;;;;;;17.92;66.67;96524.88;5045992;23;20213;-84
2023/08/30 04:36:48;;;;;;;17.63;15.10;;;;;;;17.96;66.01;96531.09;4894707;28;20208;-84
2023/08/30 04:39:13;;;;;;;16.85;14.52;;;;;;;17.85;65.97;96519.25;5051029;23;21415;-83
2023/08/30 04:41:39;;;;;;;17.75;14.50;;;;;;;17.86;66.32;96516.34;5003380;23;20200;-83
2023/08/30 04:44:04;;;;;;;19.50;16.33;;;;;;;17.97;65.80;96522.09;5097055;23;20053;-83
2023/08/30 04:46:31;;;;;;;21.17;17.00;;;;;;;17.89;66.21;96522.84;4894201;28;20296;-83
2023/08/30 04:48:56;;;;;;;17.83;14.38;;;;;;;17.93;65.78;96515.91;5134363;23;20182;-83
2023/08/30 04:51:22;;;;;;;21.13;16.20;;;;;;;17.90;66.08;96521.78;5173459;23;20266;-82
2023/08/30 04:58:59;;;;;;;19.38;14.50;;;;;;;17.89;66.39;96525.47;5045082;23;20127;-84
2023/08/30 05:01:24;;;;;;;20.92;16.85;;;;;;;17.78;66.02;96514.44;4907551;28;20255;-83
2023/08/30 05:03:50;;;;;;;21.92;16.95;;;;;;;17.88;65.97;96535.25;5013978;23;20656;-83
2023/08/30 05:08:51;;;;;;;21.70;16.77;;;;;;;17.73;66.03;96511.97;5132393;23;20206;-83
2023/08/30 05:13:51;;;;;;;19.00;15.52;;;;;;;17.87;65.49;96530.28;5058155;23;20232;-82
2023/08/30 05:16:16;;;;;;;19.63;15.80;;;;;;;17.89;65.50;96531.53;4880830;28;20261;-83
2023/08/30 05:18:42;;;;;;;30.10;17.48;;;;;;;17.81;65.40;96534.91;4892799;28;20318;-83
2023/08/30 05:21:07;;;;;;;21.08;17.00;;;;;;;17.80;65.80;96525.44;4900603;28;20273;-83
2023/08/30 05:23:33;;;;;;;23.20;16.40;;;;;;;17.84;65.79;96529.03;4877412;28;20246;-83
2023/08/30 05:25:58;;;;;;;20.02;15.90;;;;;;;17.79;65.60;96529.19;4889384;28;20284;-83
2023/08/30 05:28:24;;;;;;;18.02;14.82;;;;;;;17.73;66.17;96519.84;4881602;28;20637;-83
2023/08/30 05:30:49;;;;;;;18.98;15.50;;;;;;;17.75;65.79;96523.75;4914527;28;20222;-83
2023/08/30 05:33:16;;;;;;;20.40;15.57;;;;;;;17.76;66.01;96525.28;4917694;28;20138;-83
2023/08/30 05:35:41;;;;;;;21.55;15.85;;;;;;;17.73;65.84;96514.59;4928845;28;20712;-84
2023/08/30 05:38:07;;;;;;;20.88;15.52;;;;;;;17.84;65.61;96522.97;4908224;28;20380;-83
2023/08/30 05:40:32;;;;;;;22.08;16.90;;;;;;;17.74;66.22;96519.56;4885802;28;20281;-82
2023/08/30 05:42:57;;;;;;;19.88;16.35;;;;;;;17.79;65.56;96521.28;4915601;28;20337;-83
2023/08/30 05:45:23;;;;;;;18.67;15.07;;;;;;;17.77;65.96;96531.34;4903469;28;20179;-83
2023/08/30 05:47:48;;;;;;;20.30;15.88;;;;;;;17.76;66.22;96527.91;4923668;28;20187;-84
2023/08/30 05:50:13;;;;;;;19.05;15.48;;;;;;;17.77;66.26;96534.75;4893167;28;20226;-84
2023/08/30 05:52:41;;;;;;;19.75;15.07;;;;;;;17.74;65.89;96527.44;4897709;28;20160;-83
2023/08/30 05:55:08;;;;;;;22.13;16.73;;;;;;;17.74;66.64;96524.81;4874185;28;20618;-83
2023/08/30 05:57:33;;;;;;;24.33;16.05;;;;;;;17.82;65.88;96528.56;4883833;28;20562;-83
2023/08/30 06:00:00;;;;;;;20.92;16.13;;;;;;;17.81;66.05;96528.88;4894663;28;20253;-83
2023/08/30 06:02:25;;;;;;;18.70;13.90;;;;;;;17.80;65.68;96525.44;4914988;28;20190;-84
2023/08/30 06:04:50;;;;;;;20.52;14.27;;;;;;;17.81;66.07;96519.09;4883049;28;20226;-83
2023/08/30 06:07:16;;;;;;;21.42;15.38;;;;;;;17.92;65.74;96530.94;4873653;28;20331;-83
2023/08/30 06:09:42;;;;;;;24.05;18.08;;;;;;;17.83;65.97;96530.09;4906406;28;20248;-83
2023/08/30 06:12:08;;;;;;;23.08;17.15;;;;;;;17.86;66.55;96526.09;4868265;28;20209;-84
2023/08/30 06:14:34;;;;;;;20.63;15.40;;;;;;;17.93;66.08;96521.94;4887902;28;20557;-83
2023/08/30 06:17:00;;;;;;;21.23;15.43;;;;;;;18.01;65.74;96519.63;4882110;28;20165;-83
2023/08/30 06:19:25;;;;;;;20.92;15.88;;;;;;;18.00;65.87;96520.72;4874157;28;20180;-83
2023/08/30 06:21:51;;;;;;;22.02;15.43;;;;;;;17.93;65.80;96508.00;4963560;23;20293;-83
2023/08/30 06:24:16;;;;;;;21.70;15.85;;;;;;;17.94;65.79;96512.16;4879082;28;20223;-83
2023/08/30 06:26:41;;;;;;;20.42;15.48;;;;;;;17.99;66.32;96521.78;4875242;28;20295;-83
2023/08/30 06:29:07;;;;;;;20.23;15.55;;;;;;;17.92;65.94;96515.13;4873535;28;20282;-83
2023/08/30 06:31:32;;;;;;;22.52;15.60;;;;;;;17.99;66.45;96519.16;4874589;28;20199;-83
2023/08/30 06:33:58;;;;;;;19.92;15.23;;;;;;;18.06;65.67;96516.84;4872155;28;20165;-83
2023/08/30 06:36:23;;;;;;;24.35;16.63;;;;;;;18.09;65.60;96521.50;4895573;28;20316;-84
2023/08/30 06:38:52;;;;;;;22.95;16.10;;;;;;;18.08;66.07;96507.56;4892619;28;20625;-83
2023/08/30 06:41:17;;;;;;;23.98;16.67;;;;;;;18.23;65.76;96516.06;4890322;28;20206;-83
2023/08/30 06:43:43;;;;;;;24.27;17.00;;;;;;;18.25;65.37;96517.31;4880354;28;20366;-83
2023/08/30 06:46:08;;;;;;;21.23;15.48;;;;;;;18.20;65.80;96514.06;4878083;28;20194;-83
2023/08/30 06:48:33;;;;;;;20.70;15.40;;;;;;;18.28;65.12;96518.56;4864281;28;20294;-82
2023/08/30 06:50:59;;;;;;;23.70;17.52;;;;;;;18.22;65.26;96515.31;4901173;28;20050;-82
2023/08/30 06:56:01;;;;;;;26.23;17.40;;;;;;;18.27;64.62;96524.94;5035899;23;20273;-83
2023/08/30 06:58:27;;;;;;;20.90;15.65;;;;;;;18.39;65.02;96527.72;4891327;28;20267;-82
2023/08/30 07:00:52;;;;;;;23.90;16.52;;;;;;;18.36;65.21;96522.28;4920885;28;20284;-83
2023/08/30 07:05:53;;;;;;;25.08;17.50;;;;;;;18.17;64.82;96520.72;5480304;23;20186;-83
2023/08/30 07:10:54;;;;;;;;;;;;;;;18.44;64.50;96524.13;5220883;23;20217;-83
2023/08/30 07:13:19;;;;;;;23.02;15.88;;;;;;;18.37;65.26;96529.09;5018844;23;20532;-83
2023/08/30 07:18:19;;;;;;;23.30;15.70;;;;;;;18.42;65.05;96534.22;4916999;28;20251;-84
2023/08/30 07:20:44;;;;;;;24.17;17.20;;;;;;;18.41;64.49;96525.53;5210717;23;20621;-83
2023/08/30 07:25:45;;;;;;;22.25;15.18;;;;;;;18.38;65.13;96531.41;5422712;23;20032;-83
2023/08/30 07:28:11;;;;;;;22.83;16.33;;;;;;;18.35;65.04;96532.03;5039309;23;1335358;-83
2023/08/30 07:33:18;;;;;;;24.90;18.00;;;;;;;18.32;65.52;96533.44;5404683;23;20392;-83
2023/08/30 07:35:44;;;;;;;24.48;17.63;;;;;;;18.42;64.49;96544.75;4903208;28;20239;-82
2023/08/30 07:38:09;;;;;;;26.33;18.42;;;;;;;18.36;63.75;96527.56;4910633;28;20316;-82
2023/08/30 07:40:34;;;;;;;23.50;16.88;;;;;;;18.34;64.30;96533.13;4910452;28;20108;-81
2023/08/30 07:43:00;;;;;;;25.15;18.05;;;;;;;18.39;64.31;96540.13;4903821;28;20282;-81
2023/08/30 07:45:25;;;;;;;24.75;17.63;;;;;;;18.40;64.17;96539.78;4885937;28;20100;-82
2023/08/30 07:47:50;;;;;;;21.52;15.75;;;;;;;18.43;63.49;96544.44;4896497;28;20352;-82
2023/08/30 07:50:16;;;;;;;23.25;17.13;;;;;;;18.39;63.49;96548.78;4900316;28;20233;-81
2023/08/30 07:52:41;;;;;;;24.45;17.70;;;;;;;18.33;63.45;96548.19;4889545;28;20193;-81
2023/08/30 07:55:07;;;;;;;22.98;17.52;;;;;;;18.34;64.31;96543.69;4929073;28;20217;-81
2023/08/30 07:57:32;;;;;;;22.48;16.02;;;;;;;18.40;63.59;96531.88;4910347;28;20422;-82
2023/08/30 07:59:58;;;;;;;22.35;16.83;;;;;;;18.50;63.90;96552.66;4873825;28;20722;-81
2023/08/30 08:02:23;;;;;;;19.95;16.40;;;;;;;18.52;64.47;96547.06;4909092;28;20303;-82
2023/08/30 08:04:49;;;;;;;22.02;15.93;;;;;;;18.79;63.74;96545.97;4909843;28;20184;-81
2023/08/30 08:07:15;;;;;;;22.70;16.98;;;;;;;18.94;63.12;96541.34;4892094;28;20194;-80
2023/08/30 08:09:40;;;;;;;20.05;15.02;;;;;;;19.05;62.95;96538.03;4874862;28;20281;-82
2023/08/30 08:12:06;;;;;;;19.00;14.73;;;;;;;19.14;63.22;96535.38;4876802;28;20081;-81
2023/08/30 08:14:31;;;;;;;19.33;15.13;;;;;;;19.10;62.22;96537.09;4891529;28;20233;-80
2023/08/30 08:16:57;;;;;;;19.63;15.13;;;;;;;19.31;61.07;96541.69;4891901;28;20273;-81
2023/08/30 08:19:22;;;;;;;18.05;15.20;;;;;;;19.24;61.20;96550.88;4894414;28;20528;-80
2023/08/30 08:21:49;;;;;;;18.85;14.55;;;;;;;19.26;62.65;96551.31;4895797;28;20327;-80
2023/08/30 08:24:14;;;;;;;20.75;14.60;;;;;;;19.27;61.73;96555.50;4885997;28;20620;-81
2023/08/30 08:26:39;;;;;;;17.95;14.85;;;;;;;19.33;61.75;96558.75;4910648;28;20167;-81
2023/08/30 08:29:05;;;;;;;17.85;15.15;;;;;;;19.43;61.94;96563.69;4893796;28;20201;-82
2023/08/30 08:31:30;;;;;;;18.35;15.43;;;;;;;19.38;62.49;96555.94;4909930;28;20279;-81
2023/08/30 08:34:10;;;;;;;16.08;14.38;;;;;;;19.59;61.32;96561.28;4907116;28;20198;-81
2023/08/30 08:36:36;;;;;;;16.73;14.45;;;;;;;19.36;61.48;96552.06;4884567;28;20291;-82
2023/08/30 08:39:04;;;;;;;15.93;13.73;;;;;;;19.37;62.07;96557.03;4881795;28;20629;-81
2023/08/30 08:41:39;;;;;;;15.50;13.80;;;;;;;19.62;61.57;96555.38;4891262;28;20042;-81
2023/08/30 08:44:06;;;;;;;14.15;12.68;;;;;;;19.67;60.70;96548.38;4890760;28;20217;-81
2023/08/30 08:46:32;;;;;;;13.73;12.32;;;;;;;19.66;60.37;96547.59;4897058;28;20219;-81
2023/08/30 08:48:58;;;;;;;15.07;13.57;;;;;;;19.70;59.81;96555.66;4881240;28;20209;-80
2023/08/30 08:51:24;;;;;;;14.00;12.43;;;;;;;19.58;60.38;96548.41;4881455;28;20236;-81
2023/08/30 08:53:50;;;;;;;15.02;13.43;;;;;;;19.79;60.30;96559.03;4887066;28;20275;-81
2023/08/30 08:56:16;;;;;;;15.32;13.70;;;;;;;19.84;60.09;96540.38;4879002;28;20273;-81
2023/08/30 08:58:43;;;;;;;14.43;12.93;;;;;;;20.05;59.47;96566.03;4883789;28;20074;-80
2023/08/30 09:01:09;;;;;;;15.82;14.25;;;;;;;19.86;58.92;96551.41;4878862;28;20305;-82
2023/08/30 09:03:34;;;;;;;14.68;13.27;;;;;;;20.02;60.07;96562.19;4896905;28;20468;-81
2023/08/30 09:06:02;;;;;;;14.63;13.18;;;;;;;20.02;59.14;96557.66;4897591;28;20241;-82
2023/08/30 09:08:27;;;;;;;14.65;13.25;;;;;;;20.04;59.86;96559.22;4909412;28;20167;-81
2023/08/30 09:10:53;;;;;;;13.32;11.95;;;;;;;19.98;59.56;96548.84;4898066;28;20575;-81
2023/08/30 09:13:20;;;;;;;12.40;11.20;;;;;;;20.04;59.62;96546.03;4907647;28;20151;-80
2023/08/30 09:15:46;;;;;;;12.77;11.57;;;;;;;20.20;58.39;96550.41;4878505;28;20252;-80
2023/08/30 09:18:18;;;;;;;12.65;11.40;;;;;;;20.37;57.59;96552.16;4879633;28;20338;-81
2023/08/30 09:20:44;;;;;;;10.82;9.82;;;;;;;20.51;59.64;96557.19;4913440;28;20559;-81
2023/08/30 09:23:20;;;;;;;11.05;10.05;;;;;;;20.58;58.34;96554.03;4912996;28;20187;-80
2023/08/30 09:25:46;;;;;;;11.38;10.27;;;;;;;20.68;58.73;96548.34;4882436;28;20727;-80
2023/08/30 09:28:12;;;;;;;10.18;9.27;;;;;;;21.06;56.09;96550.00;4887547;28;20281;-81
2023/08/30 09:30:39;;;;;;;10.88;9.88;;;;;;;21.47;55.26;96543.03;4912421;28;20306;-80
2023/08/30 09:33:05;;;;;;;10.52;9.57;;;;;;;21.53;57.31;96532.22;4910478;28;20220;-80
2023/08/30 09:35:31;;;;;;;10.63;9.52;;;;;;;21.60;56.20;96533.19;4912735;28;20195;-81
2023/08/30 09:37:56;;;;;;;8.82;8.02;;;;;;;21.88;56.37;96525.34;4931490;28;20096;-81
2023/08/30 09:40:22;;;;;;;7.72;7.13;;;;;;;22.18;54.81;96526.94;4897568;28;20175;-80
2023/08/30 09:42:48;;;;;;;8.52;7.78;;;;;;;22.41;53.49;96520.06;4905556;28;20271;-80
2023/08/30 09:45:19;;;;;;;8.85;8.15;;;;;;;22.55;54.85;96514.38;4877928;28;20357;-80
2023/08/30 09:47:49;;;;;;;8.05;7.45;;;;;;;22.83;54.67;96502.94;4929709;28;20365;-80
2023/08/30 09:50:17;;;;;;;6.78;6.22;;;;;;;23.20;50.59;96505.38;4903769;28;20292;-80
2023/08/30 09:52:42;;;;;;;6.70;6.20;;;;;;;23.29;51.78;96502.56;4911428;28;20210;-80
2023/08/30 09:55:09;;;;;;;5.95;5.45;;;;;;;23.45;51.47;96510.53;4862705;28;20222;-80
2023/08/30 09:57:35;;;;;;;5.50;5.05;;;;;;;23.65;51.37;96506.81;4928879;28;20716;-79
2023/08/30 10:00:00;;;;;;;5.85;5.35;;;;;;;23.58;50.09;96504.00;4892883;28;20258;-81
2023/08/30 10:02:26;;;;;;;5.95;5.45;;;;;;;23.53;49.25;96494.41;4886387;28;20259;-81
2023/08/30 10:04:52;;;;;;;5.78;5.32;;;;;;;23.33;50.85;96477.63;4907839;28;20189;-79
2023/08/30 10:07:17;;;;;;;5.45;4.95;;;;;;;23.77;50.09;96489.19;4920374;28;20315;-80
2023/08/30 10:09:43;;;;;;;5.10;4.70;;;;;;;23.81;48.48;96479.44;4899568;28;20274;-79
2023/08/30 10:12:10;;;;;;;4.47;4.18;;;;;;;23.83;48.57;96477.22;4894416;28;20249;-79
2023/08/30 10:14:36;;;;;;;4.70;4.30;;;;;;;24.04;49.43;96476.88;4913058;28;20387;-80
2023/08/30 10:17:03;;;;;;;4.93;4.63;;;;;;;24.29;48.45;96472.06;4912105;28;20150;-79
2023/08/30 10:19:29;;;;;;;4.68;4.28;;;;;;;24.43;49.26;96472.31;4889224;28;20203;-79
2023/08/30 10:22:03;;;;;;;4.15;3.85;;;;;;;24.60;47.85;96467.72;4904659;28;20197;-79
2023/08/30 10:24:31;;;;;;;5.65;4.20;;;;;;;24.45;49.32;96470.09;4896763;28;20721;-77
2023/08/30 10:26:57;;;;;;;4.10;3.80;;;;;;;24.87;46.16;96473.88;4876510;28;20266;-78
2023/08/30 10:29:23;;;;;;;3.90;3.60;;;;;;;24.89;44.66;96470.88;4878278;28;20191;-79
2023/08/30 10:31:49;;;;;;;3.70;3.40;;;;;;;24.82;46.02;96458.97;4878747;28;20626;-78
2023/08/30 10:34:19;;;;;;;4.10;3.70;;;;;;;25.04;44.94;96462.00;4894350;28;20180;-78
2023/08/30 10:36:45;;;;;;;4.32;3.55;;;;;;;24.97;46.41;96456.56;4892815;28;20179;-78
2023/08/30 10:39:14;;;;;;;4.72;3.88;;;;;;;25.18;43.11;96459.53;4872384;28;20191;-78
2023/08/30 10:41:56;;;;;;;4.50;4.20;;;;;;;24.92;42.98;96464.84;4890796;28;20261;-78
2023/08/30 10:44:22;;;;;;;3.50;3.25;;;;;;;24.00;47.57;96462.75;4877309;28;20258;-78
2023/08/30 10:46:52;;;;;;;4.47;4.18;;;;;;;23.70;46.94;96468.53;4878364;28;20289;-78
2023/08/30 10:49:18;;;;;;;4.75;4.25;;;;;;;23.43;46.63;96462.28;4879972;28;20664;-78
2023/08/30 10:51:44;;;;;;;8.73;4.05;;;;;;;23.04;47.60;96467.41;4912142;28;20202;-79
2023/08/30 10:54:14;;;;;;;3.60;3.20;;;;;;;22.87;48.53;96452.59;4895909;28;20179;-79
2023/08/30 10:56:55;;;;;;;4.32;3.58;;;;;;;22.90;45.95;96459.88;4922530;28;20667;-78
2023/08/30 10:59:22;;;;;;;3.45;3.13;;;;;;;22.90;46.67;96459.88;4894150;28;20233;-79
2023/08/30 11:01:49;;;;;;;3.83;3.53;;;;;;;22.77;47.32;96454.66;4896475;28;20276;-78
2023/08/30 11:04:16;;;;;;;3.40;3.20;;;;;;;22.52;48.87;96446.06;4909489;28;20284;-78
2023/08/30 11:06:49;;;;;;;3.88;3.55;;;;;;;22.70;48.94;96446.50;4869296;28;20172;-79
2023/08/30 11:09:20;;;;;;;3.58;3.33;;;;;;;22.71;50.29;96450.69;4882538;28;20179;-79
2023/08/30 11:11:46;;;;;;;3.80;3.50;;;;;;;22.97;49.39;96450.19;4887989;28;20283;-79
2023/08/30 11:14:13;;;;;;;2.80;2.60;;;;;;;23.55;47.06;96446.22;4884047;28;20183;-79
2023/08/30 11:16:39;;;;;;;2.80;2.60;;;;;;;23.99;45.16;96446.03;4890135;28;20239;-78
2023/08/30 11:19:06;;;;;;;3.72;2.63;;;;;;;24.27;43.91;96442.38;4938386;28;20204;-78
2023/08/30 11:21:40;;;;;;;2.80;2.60;;;;;;;24.78;44.95;96449.38;4886933;28;20280;-79
2023/08/30 11:24:06;;;;;;;2.75;2.55;;;;;;;25.04;44.17;96440.69;4924229;28;20371;-78
2023/08/30 11:26:32;;;;;;;3.58;2.83;;;;;;;25.33;42.88;96436.56;4935512;28;20295;-78
2023/08/30 11:29:04;;;;;;;2.50;2.30;;;;;;;25.63;40.28;96432.41;4925630;28;20295;-79
2023/08/30 11:31:29;;;;;;;2.55;2.15;;;;;;;25.93;38.86;96425.16;4868150;28;20243;-78
2023/08/30 11:33:56;;;;;;;2.67;2.47;;;;;;;25.15;41.76;96428.28;4898301;28;20661;-79
2023/08/30 11:36:25;;;;;;;3.30;2.45;;;;;;;25.22;40.57;96417.75;4891361;28;20210;-78
2023/08/30 11:38:51;;;;;;;2.15;2.05;;;;;;;25.56;41.47;96438.41;4886921;28;20241;-78
2023/08/30 11:41:17;;;;;;;2.65;2.42;;;;;;;25.32;39.93;96426.28;4886740;28;20367;-79
2023/08/30 11:43:43;;;;;;;2.60;2.40;;;;;;;25.32;41.79;96431.59;4905199;28;20578;-78
2023/08/30 11:46:09;;;;;;;2.83;2.55;;;;;;;25.15;40.41;96428.28;4888582;28;20140;-78
2023/08/30 11:48:35;;;;;;;3.40;2.08;;;;;;;25.04;40.59;96428.13;4911284;28;20209;-78
2023/08/30 11:51:00;;;;;;;5.15;2.67;;;;;;;24.57;43.60;96439.88;5011958;23;20266;-77
2023/08/30 11:53:26;;;;;;;2.80;2.60;;;;;;;24.35;41.14;96427.31;4892409;28;20263;-77
2023/08/30 11:55:53;;;;;;;3.17;2.90;;;;;;;24.40;39.99;96438.44;4876818;28;20338;-77
2023/08/30 11:58:18;;;;;;;2.75;2.55;;;;;;;24.21;41.68;96438.44;4889678;28;20190;-77
2023/08/30 12:00:45;;;;;;;3.60;2.67;;;;;;;24.11;41.82;96445.88;4972871;23;20897;-77
2023/08/30 12:03:14;;;;;;;2.50;2.30;;;;;;;24.04;41.92;96445.75;4892226;28;20140;-78
2023/08/30 12:05:46;;;;;;;5.55;3.15;;;;;;;24.03;41.63;96433.56;4926597;28;20210;-77
2023/08/30 12:08:24;;;;;;;3.97;3.13;;;;;;;24.04;43.37;96439.66;4896885;28;20594;-77
2023/08/30 12:10:50;;;;;;;2.95;2.75;;;;;;;23.83;44.39;96434.69;4899347;28;20246;-77
2023/08/30 12:13:26;;;;;;;3.17;2.65;;;;;;;23.92;44.27;96430.69;4885928;28;20305;-78
2023/08/30 12:15:56;;;;;;;3.30;2.58;;;;;;;24.07;44.44;96423.75;4883045;28;20238;-77
2023/08/30 12:18:31;;;;;;;2.88;2.60;;;;;;;24.34;43.55;96431.88;4886354;28;20634;-79
2023/08/30 12:21:01;;;;;;;3.15;2.83;;;;;;;24.36;41.36;96426.94;4907739;28;20374;-78
2023/08/30 12:23:29;;;;;;;3.33;3.03;;;;;;;24.49;43.07;96417.69;4920711;28;20229;-78
2023/08/30 12:26:03;;;;;;;3.45;3.15;;;;;;;24.62;42.93;96420.19;4929805;28;20254;-77
2023/08/30 12:28:29;;;;;;;3.03;2.83;;;;;;;24.67;43.10;96417.25;4893429;28;20253;-77
2023/08/30 12:30:55;;;;;;;2.58;2.38;;;;;;;24.62;40.72;96414.88;4894174;28;20261;-77
2023/08/30 12:33:28;;;;;;;3.22;3.00;;;;;;;24.53;44.41;96401.78;5040291;23;20205;-77
2023/08/30 12:35:54;;;;;;;3.72;2.95;;;;;;;24.42;42.39;96409.59;4941304;23;20213;-77